Kongiganak Airport


Codes: PADY/KKH
Name: Kongiganak Airport
City: Kongiganak
Country: United States
Elevation: 30 ft.
Wikipedia:

Photos at Kongiganak Airport


   Photos courtesy of SpottingLog. You can add your own sightings and photos by signing up for a free trial today.



No photos found.

Weather at Kongiganak Airport


Time (UTC)DescriptionTempratureWindCloud coverageVisibilityPressureHumidity
16-Jun-2024 03:00Scattered Clouds19°C7 mph, W45%10000m1022hPa48%
16-Jun-2024 06:00Broken Clouds18°C7 mph, NW52%10000m1021hPa47%
16-Jun-2024 09:00Scattered Clouds15°C11 mph, NW25%10000m1021hPa53%
16-Jun-2024 12:00Scattered Clouds14°C11 mph, N37%10000m1021hPa62%
16-Jun-2024 15:00Overcast Clouds13°C11 mph, N87%10000m1020hPa67%
16-Jun-2024 18:00Overcast Clouds17°C11 mph, NE92%10000m1020hPa54%
16-Jun-2024 21:00Overcast Clouds20°C11 mph, NE99%10000m1019hPa45%
17-Jun-2024 00:00Overcast Clouds21°C7 mph, NE96%10000m1017hPa40%
17-Jun-2024 03:00Overcast Clouds21°C2 mph, SE100%10000m1016hPa38%
17-Jun-2024 06:00Overcast Clouds19°C7 mph, SW100%10000m1015hPa49%
17-Jun-2024 09:00Overcast Clouds14°C11 mph, SW100%10000m1015hPa65%
17-Jun-2024 12:00Overcast Clouds13°C9 mph, SW95%10000m1015hPa68%
17-Jun-2024 15:00Scattered Clouds12°C9 mph, SW42%10000m1014hPa74%
17-Jun-2024 18:00Scattered Clouds14°C9 mph, SW48%10000m1014hPa65%
17-Jun-2024 21:00Scattered Clouds16°C11 mph, SW34%10000m1014hPa59%
18-Jun-2024 00:00Scattered Clouds16°C16 mph, SW28%10000m1014hPa56%
18-Jun-2024 03:00Overcast Clouds15°C13 mph, SW95%10000m1013hPa55%
18-Jun-2024 06:00Overcast Clouds13°C13 mph, SW90%10000m1012hPa57%
18-Jun-2024 09:00Overcast Clouds11°C11 mph, SW95%10000m1013hPa64%
18-Jun-2024 12:00Overcast Clouds10°C9 mph, SW93%10000m1012hPa69%
18-Jun-2024 15:00Broken Clouds10°C9 mph, SW62%10000m1012hPa71%
18-Jun-2024 18:00Broken Clouds10°C13 mph, S77%10000m1013hPa68%
18-Jun-2024 21:00Overcast Clouds11°C16 mph, S100%10000m1013hPa71%
19-Jun-2024 00:00Overcast Clouds12°C13 mph, S99%10000m1013hPa68%
19-Jun-2024 03:00Overcast Clouds11°C13 mph, S89%10000m1013hPa73%
19-Jun-2024 06:00Overcast Clouds10°C13 mph, SE95%10000m1013hPa78%
19-Jun-2024 09:00Overcast Clouds10°C13 mph, SE100%10000m1013hPa79%
19-Jun-2024 12:00Overcast Clouds9°C13 mph, SE100%10000m1013hPa84%
19-Jun-2024 15:00Overcast Clouds9°C11 mph, SE100%10000m1013hPa82%
19-Jun-2024 18:00Overcast Clouds10°C11 mph, SE100%10000m1014hPa75%
19-Jun-2024 21:00Overcast Clouds10°C13 mph, SE100%10000m1015hPa77%
20-Jun-2024 00:00Overcast Clouds11°C11 mph, S100%10000m1015hPa75%
20-Jun-2024 03:00Overcast Clouds11°C9 mph, S96%10000m1016hPa74%
20-Jun-2024 06:00Overcast Clouds10°C4 mph, S98%10000m1016hPa79%
20-Jun-2024 09:00Overcast Clouds10°C2 mph, SW100%10000m1017hPa82%
20-Jun-2024 12:00Overcast Clouds10°C0 mph, N100%10000m1017hPa82%
20-Jun-2024 15:00Overcast Clouds10°C4 mph, N100%10000m1017hPa80%
20-Jun-2024 18:00Overcast Clouds11°C7 mph, N100%10000m1017hPa74%
20-Jun-2024 21:00Broken Clouds15°C7 mph, N75%10000m1017hPa61%
21-Jun-2024 00:00Light Rain16°C4 mph, NW77%10000m1016hPa55%